createdAt,value
2019-03-13T00:01:26.628Z,5.02
2019-03-13T00:03:54.929Z,5.01
2019-03-13T00:06:23.166Z,5.02
2019-03-13T00:08:51.437Z,5.04
2019-03-13T00:11:19.675Z,4.97
2019-03-13T00:13:47.941Z,4.97
2019-03-13T00:16:16.182Z,5.05
2019-03-13T00:18:44.418Z,5.05
2019-03-13T00:21:12.729Z,5.02
2019-03-13T00:23:40.942Z,5.00
2019-03-13T00:26:09.190Z,4.97
2019-03-13T00:28:37.457Z,4.95
2019-03-13T00:31:06.268Z,4.99
2019-03-13T00:33:34.535Z,4.96
2019-03-13T00:36:02.953Z,4.96
2019-03-13T00:38:31.209Z,4.92
2019-03-13T00:40:59.451Z,4.91
2019-03-13T00:43:27.752Z,4.95
2019-03-13T00:45:55.985Z,4.94
2019-03-13T00:48:24.283Z,4.94
2019-03-13T00:50:52.519Z,4.95
2019-03-13T00:53:20.869Z,4.95
2019-03-13T00:55:49.134Z,4.95
2019-03-13T00:58:18.967Z,4.94
2019-03-13T01:00:58.345Z,4.92
2019-03-13T01:03:33.923Z,4.94
2019-03-13T01:06:21.925Z,4.94
2019-03-13T01:08:50.159Z,4.89
2019-03-13T01:11:18.521Z,4.89
2019-03-13T01:13:46.785Z,4.95
2019-03-13T01:16:15.053Z,4.95
2019-03-13T01:18:43.344Z,4.93
2019-03-13T01:21:11.648Z,4.90
2019-03-13T01:23:39.904Z,4.87
2019-03-13T01:26:08.149Z,4.83
2019-03-13T01:28:36.446Z,4.86
2019-03-13T01:31:21.347Z,4.77
2019-03-13T01:33:49.741Z,4.78
2019-03-13T01:36:17.981Z,4.76
2019-03-13T01:38:46.222Z,4.76
2019-03-13T01:41:14.674Z,4.73
2019-03-13T01:43:42.949Z,4.73
2019-03-13T01:46:11.176Z,4.69
2019-03-13T01:48:39.576Z,4.62
2019-03-13T01:51:07.814Z,4.65
2019-03-13T01:53:36.793Z,4.65
2019-03-13T01:56:05.069Z,4.66
2019-03-13T01:58:33.374Z,4.68
2019-03-13T02:01:02.432Z,4.69
2019-03-13T02:03:31.005Z,4.69
2019-03-13T02:05:59.254Z,4.78
2019-03-13T02:08:27.560Z,4.84
2019-03-13T02:10:55.816Z,4.90
2019-03-13T02:13:24.925Z,4.90
2019-03-13T02:15:53.179Z,4.91
2019-03-13T02:18:21.470Z,4.93
2019-03-13T02:20:49.851Z,4.97
2019-03-13T02:23:18.181Z,4.95
2019-03-13T02:25:46.445Z,4.97
2019-03-13T02:28:14.739Z,5.03
2019-03-13T02:30:43.128Z,5.06
2019-03-13T02:33:11.381Z,5.10
2019-03-13T02:35:39.755Z,5.10
2019-03-13T02:38:08.049Z,5.21
2019-03-13T02:40:36.630Z,5.21
2019-03-13T02:43:04.884Z,5.24
2019-03-13T02:45:33.145Z,5.23
2019-03-13T02:48:01.411Z,5.28
2019-03-13T02:50:29.677Z,5.29
2019-03-13T02:52:58.075Z,5.31
2019-03-13T02:55:26.309Z,5.29
2019-03-13T02:57:54.547Z,5.34
2019-03-13T03:00:27.458Z,5.34
2019-03-13T03:03:00.063Z,5.38
2019-03-13T03:05:28.289Z,5.38
2019-03-13T03:07:56.565Z,5.36
2019-03-13T03:10:24.876Z,5.36
2019-03-13T03:12:53.176Z,5.39
2019-03-13T03:15:21.454Z,5.39
2019-03-13T03:17:49.696Z,5.42
2019-03-13T03:20:19.860Z,5.43
2019-03-13T03:22:48.096Z,5.40
2019-03-13T03:25:17.453Z,5.40
2019-03-13T03:27:45.691Z,5.40
2019-03-13T03:30:19.353Z,5.39
2019-03-13T03:32:47.622Z,5.39
2019-03-13T03:35:15.997Z,5.44
2019-03-13T03:37:46.895Z,5.44
2019-03-13T03:40:23.035Z,5.42
2019-03-13T03:42:50.076Z,5.37
2019-03-13T03:45:18.552Z,5.43
2019-03-13T03:47:46.824Z,5.43
2019-03-13T03:50:16.220Z,5.44
2019-03-13T03:52:44.477Z,5.42
2019-03-13T03:55:13.728Z,5.49
2019-03-13T03:57:41.972Z,5.49
2019-03-13T04:00:16.456Z,5.45
2019-03-13T04:02:44.766Z,5.51
2019-03-13T04:05:13.138Z,5.52
2019-03-13T04:07:41.471Z,5.52
2019-03-13T04:10:12.038Z,5.58
2019-03-13T04:12:40.666Z,5.58
2019-03-13T04:15:11.749Z,5.63
2019-03-13T04:17:39.999Z,5.63
2019-03-13T04:20:10.383Z,5.66
2019-03-13T04:22:40.267Z,5.66
2019-03-13T04:25:26.869Z,5.67
2019-03-13T04:27:55.195Z,5.67
2019-03-13T04:30:23.479Z,5.68
2019-03-13T04:32:51.759Z,5.70
2019-03-13T04:35:20.016Z,5.72
2019-03-13T04:37:48.318Z,5.72
2019-03-13T04:40:16.844Z,5.71
2019-03-13T04:42:45.217Z,5.69
2019-03-13T04:45:13.554Z,5.69
2019-03-13T04:47:41.788Z,5.77
2019-03-13T04:50:14.144Z,5.78
2019-03-13T04:52:42.473Z,5.80
2019-03-13T04:55:12.132Z,5.80
2019-03-13T04:57:40.565Z,5.80
2019-03-13T05:00:15.008Z,5.83
2019-03-13T05:02:43.382Z,5.80
2019-03-13T05:05:31.311Z,5.79
2019-03-13T05:07:59.547Z,5.77
2019-03-13T05:10:27.846Z,5.74
2019-03-13T05:12:56.410Z,5.74
2019-03-13T05:15:24.838Z,5.80
2019-03-13T05:17:53.098Z,5.80
2019-03-13T05:20:21.384Z,5.80
2019-03-13T05:23:04.321Z,5.80
2019-03-13T05:25:31.464Z,5.75
2019-03-13T05:27:59.773Z,5.75
2019-03-13T05:30:28.007Z,5.79
2019-03-13T05:32:56.306Z,5.79
2019-03-13T05:45:01.657Z,5.61
2019-03-13T05:47:29.966Z,5.61
2019-03-13T05:50:01.211Z,5.66
2019-03-13T05:52:29.480Z,5.67
2019-03-13T05:54:57.763Z,5.69
2019-03-13T05:57:26.027Z,5.62
2019-03-13T05:59:54.274Z,5.65
2019-03-13T06:02:23.355Z,5.65
2019-03-13T06:04:51.601Z,5.66
2019-03-13T06:07:19.846Z,5.61
2019-03-13T06:09:48.116Z,5.61
2019-03-13T06:12:16.362Z,5.66
2019-03-13T06:14:44.714Z,5.66
2019-03-13T06:17:12.992Z,5.66
2019-03-13T06:19:41.249Z,5.61
2019-03-13T06:22:09.486Z,5.61
2019-03-13T06:24:37.786Z,5.64
2019-03-13T06:27:06.031Z,5.71
2019-03-13T06:29:34.351Z,5.69
2019-03-13T06:32:02.584Z,5.69
2019-03-13T06:34:31.024Z,5.77
2019-03-13T06:36:59.944Z,5.77
2019-03-13T06:39:28.195Z,5.74
2019-03-13T06:41:56.463Z,5.74
2019-03-13T06:44:24.765Z,5.65
2019-03-13T06:46:53.124Z,5.72
2019-03-13T06:49:21.353Z,5.67
2019-03-13T06:51:49.647Z,5.73
2019-03-13T06:54:17.926Z,5.77
2019-03-13T06:56:46.380Z,5.77
2019-03-13T06:59:16.268Z,5.79
2019-03-13T07:02:02.527Z,5.78
2019-03-13T07:04:32.416Z,5.83
2019-03-13T07:07:17.519Z,5.86
2019-03-13T07:09:47.421Z,5.81
2019-03-13T07:12:22.810Z,5.83
2019-03-13T07:15:04.701Z,5.92
2019-03-13T07:17:37.413Z,5.92
2019-03-13T07:20:10.605Z,5.90
2019-03-13T07:22:40.567Z,5.92
2019-03-13T07:25:28.807Z,5.91
2019-03-13T07:28:07.726Z,5.93
2019-03-13T07:30:37.614Z,5.96
2019-03-13T07:33:24.123Z,5.96
2019-03-13T07:35:56.705Z,6.00
2019-03-13T07:38:35.415Z,6.00
2019-03-13T07:41:05.333Z,6.08
2019-03-13T07:43:41.092Z,6.08
2019-03-13T07:46:22.690Z,6.08
2019-03-13T07:49:04.536Z,5.93
2019-03-13T07:51:34.413Z,5.93
2019-03-13T07:54:07.257Z,5.92
2019-03-13T07:56:53.450Z,5.97
2019-03-13T07:59:26.118Z,5.97
2019-03-13T08:01:56.018Z,6.02
2019-03-13T08:04:28.812Z,6.09
2019-03-13T08:06:58.742Z,6.12
2019-03-13T08:09:43.403Z,6.21
2019-03-13T08:12:13.327Z,6.30
2019-03-13T08:15:02.053Z,6.30
2019-03-13T08:17:47.952Z,6.33
2019-03-13T08:20:20.351Z,6.46
2019-03-13T08:23:08.640Z,6.58
2019-03-13T08:25:54.474Z,6.58
2019-03-13T08:28:26.853Z,6.81
2019-03-13T08:31:14.624Z,6.79
2019-03-13T08:33:48.659Z,6.74
2019-03-13T08:36:18.586Z,6.67
2019-03-13T08:38:57.132Z,6.63
2019-03-13T08:41:27.054Z,6.58
2019-03-13T08:44:02.681Z,6.52
2019-03-13T08:46:41.469Z,6.47
2019-03-13T08:49:29.449Z,6.45
2019-03-13T08:52:17.428Z,6.50
2019-03-13T08:54:59.316Z,6.46
2019-03-13T08:57:29.261Z,6.41
2019-03-13T08:59:59.140Z,6.33
2019-03-13T09:02:29.028Z,6.29
2019-03-13T09:05:07.725Z,6.27
2019-03-13T09:07:37.659Z,6.24
2019-03-13T09:10:16.824Z,6.20
2019-03-13T09:12:52.406Z,6.20
2019-03-13T09:15:22.360Z,6.12
2019-03-13T09:17:52.272Z,6.18
2019-03-13T09:20:27.974Z,6.12
2019-03-13T09:23:00.569Z,6.11
2019-03-13T09:25:30.463Z,6.14
2019-03-13T09:28:09.352Z,6.22
2019-03-13T09:30:48.211Z,6.27
2019-03-13T09:33:18.137Z,6.27
2019-03-13T09:35:54.001Z,6.31
2019-03-13T09:38:26.700Z,6.37
2019-03-13T09:41:05.707Z,6.44
2019-03-13T09:43:35.602Z,6.49
2019-03-13T09:46:06.044Z,6.57
2019-03-13T09:48:51.820Z,6.65
2019-03-13T09:51:37.655Z,6.87
2019-03-13T09:54:26.028Z,6.93
2019-03-13T09:57:01.599Z,6.90
2019-03-13T09:59:42.812Z,6.91
2019-03-13T10:02:03.179Z,6.89
2019-03-13T10:04:35.589Z,6.87
2019-03-13T10:07:22.903Z,6.88
2019-03-13T10:10:01.378Z,6.86
2019-03-13T10:12:47.458Z,6.88
2019-03-13T10:15:26.134Z,6.89
2019-03-13T10:17:58.988Z,6.94
2019-03-13T10:20:28.897Z,6.96
2019-03-13T10:23:01.319Z,6.94
2019-03-13T10:25:31.402Z,6.93
2019-03-13T10:28:09.911Z,6.92
2019-03-13T10:30:47.327Z,6.92
2019-03-13T10:33:19.962Z,6.99
2019-03-13T10:35:55.463Z,6.97
2019-03-13T10:38:43.423Z,7.00
2019-03-13T10:41:16.137Z,7.06
2019-03-13T10:43:49.064Z,7.21
2019-03-13T10:46:21.512Z,7.31
2019-03-13T10:49:07.431Z,7.31
2019-03-13T10:51:39.754Z,7.32
2019-03-13T10:54:09.639Z,7.27
2019-03-13T10:56:48.330Z,7.27
2019-03-13T10:59:23.875Z,7.36
2019-03-13T11:01:53.796Z,7.37
2019-03-13T11:04:23.927Z,7.42
2019-03-13T11:06:55.229Z,7.39
2019-03-13T11:09:25.380Z,7.37
2019-03-13T11:11:57.771Z,7.40
2019-03-13T11:14:36.377Z,7.44
2019-03-13T11:17:15.214Z,7.54
2019-03-13T11:19:47.930Z,7.64
2019-03-13T11:22:33.119Z,7.71
2019-03-13T11:25:05.669Z,7.69
2019-03-13T11:27:47.628Z,7.72
2019-03-13T11:30:20.627Z,7.69
2019-03-13T11:32:49.393Z,7.67
2019-03-13T11:35:19.347Z,7.58
2019-03-13T11:38:01.102Z,7.54
2019-03-13T11:40:43.218Z,7.40
2019-03-13T11:43:18.930Z,7.38
2019-03-13T11:45:54.797Z,7.36
2019-03-13T11:48:24.730Z,7.22
2019-03-13T11:50:57.518Z,7.20
2019-03-13T11:53:27.441Z,7.19
2019-03-13T11:56:09.391Z,7.19
2019-03-13T11:58:45.231Z,7.20
2019-03-13T12:01:18.111Z,7.09
2019-03-13T12:03:48.065Z,7.04
2019-03-13T12:06:24.126Z,7.04
2019-03-13T12:09:09.374Z,7.05
2019-03-13T12:11:42.036Z,6.99
2019-03-13T12:14:17.642Z,7.08
2019-03-13T12:16:47.699Z,7.06
2019-03-13T12:19:17.620Z,7.08
2019-03-13T12:22:03.712Z,7.08
2019-03-13T12:24:33.648Z,7.12
2019-03-13T12:27:09.507Z,7.07
2019-03-13T12:29:41.923Z,7.04
2019-03-13T12:32:11.852Z,7.02
2019-03-13T12:34:56.679Z,7.00
2019-03-13T12:37:29.519Z,6.96
2019-03-13T12:40:11.481Z,6.95
2019-03-13T12:42:47.050Z,6.97
2019-03-13T12:45:29.385Z,6.97
2019-03-13T12:48:00.471Z,7.00
2019-03-13T12:50:34.322Z,6.98
2019-03-13T12:53:04.435Z,7.00
2019-03-13T12:55:34.367Z,7.08
2019-03-13T12:58:20.411Z,7.22
2019-03-13T13:00:50.318Z,7.36
2019-03-13T13:03:34.608Z,7.51
2019-03-13T13:06:04.590Z,7.52
2019-03-13T13:08:41.566Z,7.46
2019-03-13T13:11:17.417Z,7.34
2019-03-13T13:13:47.297Z,7.21
2019-03-13T13:16:29.300Z,7.13
2019-03-13T13:18:57.546Z,6.87
2019-03-13T13:21:25.825Z,6.74
2019-03-13T13:23:54.112Z,6.66
2019-03-13T13:26:22.347Z,6.57
2019-03-13T13:28:50.646Z,6.53
2019-03-13T13:31:18.910Z,6.57
2019-03-13T13:33:47.172Z,6.59
2019-03-13T13:36:15.558Z,6.62
2019-03-13T13:38:43.804Z,6.66
2019-03-13T13:41:12.071Z,6.71
2019-03-13T13:43:40.422Z,6.74
2019-03-13T13:46:17.875Z,6.73
2019-03-13T13:48:46.184Z,6.75
2019-03-13T13:51:14.426Z,6.74
2019-03-13T13:53:42.670Z,6.82
2019-03-13T13:56:10.941Z,6.82
2019-03-13T13:58:39.216Z,6.87
2019-03-13T14:01:07.498Z,6.90
2019-03-13T14:03:35.739Z,6.97
2019-03-13T14:06:04.124Z,7.01
2019-03-13T14:08:32.372Z,7.11
2019-03-13T14:11:00.615Z,7.35
2019-03-13T14:13:28.930Z,7.63
2019-03-13T14:15:57.301Z,7.80
2019-03-13T14:18:25.613Z,7.98
2019-03-13T14:20:53.822Z,8.17
2019-03-13T14:23:22.098Z,8.35
2019-03-13T14:25:50.343Z,8.47
2019-03-13T14:28:18.658Z,8.50
2019-03-13T14:30:46.965Z,8.37
2019-03-13T14:33:15.231Z,8.29
2019-03-13T14:35:46.199Z,8.03
2019-03-13T14:38:13.468Z,7.62
2019-03-13T14:40:41.711Z,7.34
2019-03-13T14:43:10.011Z,7.04
2019-03-13T14:45:38.240Z,6.99
2019-03-13T14:48:07.083Z,6.99
2019-03-13T14:50:36.610Z,7.10
2019-03-13T14:53:05.145Z,7.18
2019-03-13T14:55:33.413Z,7.27
2019-03-13T14:58:01.719Z,7.32
2019-03-13T15:00:29.968Z,7.37
2019-03-13T15:02:59.142Z,7.50
2019-03-13T15:05:27.423Z,7.59
2019-03-13T15:07:55.825Z,7.67
2019-03-13T15:10:24.061Z,7.71
2019-03-13T15:12:52.311Z,7.87
2019-03-13T15:15:22.681Z,8.01
2019-03-13T15:17:53.105Z,8.11
2019-03-13T15:20:30.663Z,8.21
2019-03-13T15:22:58.901Z,8.27
2019-03-13T15:25:27.198Z,8.32
2019-03-13T15:27:55.488Z,8.42
2019-03-13T15:30:27.851Z,8.42
2019-03-13T15:32:56.085Z,8.50
2019-03-13T15:35:24.364Z,8.45
2019-03-13T15:37:52.731Z,8.49
2019-03-13T15:40:20.994Z,8.52
2019-03-13T15:42:49.304Z,8.48
2019-03-13T15:45:24.747Z,8.41
2019-03-13T15:47:53.065Z,8.37
2019-03-13T15:50:21.348Z,8.32
2019-03-13T15:52:49.584Z,8.29
2019-03-13T15:55:18.687Z,8.27
2019-03-13T15:57:46.989Z,8.25
2019-03-13T16:00:24.311Z,8.24
2019-03-13T16:02:55.434Z,8.19
2019-03-13T16:05:22.615Z,8.12
2019-03-13T16:07:50.899Z,8.03
2019-03-13T16:10:19.990Z,7.93
2019-03-13T16:12:48.267Z,7.82
2019-03-13T16:15:25.877Z,7.58
2019-03-13T16:17:54.113Z,7.47
2019-03-13T16:20:22.476Z,7.32
2019-03-13T16:23:01.372Z,7.20
2019-03-13T16:25:29.606Z,7.11
2019-03-13T16:27:57.902Z,7.06
2019-03-13T16:30:34.476Z,7.09
2019-03-13T16:33:02.777Z,7.06
2019-03-13T16:35:31.136Z,7.15
2019-03-13T16:37:59.387Z,7.14
2019-03-13T16:40:27.925Z,7.09
2019-03-13T16:42:56.232Z,7.11
2019-03-13T16:45:24.786Z,7.12
2019-03-13T16:47:53.066Z,7.16
2019-03-13T16:50:26.417Z,7.16
2019-03-13T16:52:54.682Z,7.18
2019-03-13T16:55:22.946Z,7.19
2019-03-13T16:57:51.219Z,7.23
2019-03-13T17:00:31.752Z,7.25
2019-03-13T17:03:00.013Z,7.27
2019-03-13T17:05:28.260Z,7.33
2019-03-13T17:07:56.530Z,7.36
2019-03-13T17:10:26.866Z,7.34
2019-03-13T17:12:55.218Z,7.38
2019-03-13T17:15:25.335Z,7.42
2019-03-13T17:17:54.001Z,7.46
2019-03-13T17:20:29.921Z,7.46
2019-03-13T17:22:58.220Z,7.47
2019-03-13T17:25:26.567Z,7.51
2019-03-13T17:27:54.847Z,7.51
2019-03-13T17:30:26.397Z,7.52
2019-03-13T17:32:54.681Z,7.50
2019-03-13T17:35:22.958Z,7.53
2019-03-13T17:37:51.310Z,7.51
2019-03-13T17:40:30.564Z,7.52
2019-03-13T17:42:59.859Z,7.54
2019-03-13T17:45:28.105Z,7.53
2019-03-13T17:47:56.352Z,7.48
2019-03-13T17:50:25.183Z,7.47
2019-03-13T17:52:53.452Z,7.43
2019-03-13T17:55:22.746Z,7.43
2019-03-13T17:57:51.124Z,7.41
2019-03-13T18:00:22.483Z,7.36
2019-03-13T18:02:50.713Z,7.37
2019-03-13T18:05:19.044Z,7.36
2019-03-13T18:07:47.271Z,7.36
2019-03-13T18:10:20.055Z,7.41
2019-03-13T18:12:48.289Z,7.37
2019-03-13T18:15:17.786Z,7.37
2019-03-13T18:17:46.001Z,7.40
2019-03-13T18:20:19.806Z,7.39
2019-03-13T18:22:48.225Z,7.31
2019-03-13T18:25:18.104Z,7.35
2019-03-13T18:27:46.823Z,7.33
2019-03-13T18:30:22.987Z,7.30
2019-03-13T18:32:51.226Z,7.30
2019-03-13T18:35:20.358Z,7.25
2019-03-13T18:37:48.670Z,7.22
2019-03-13T18:40:18.689Z,7.21
2019-03-13T18:42:47.119Z,7.22
2019-03-13T18:45:29.030Z,7.26
2019-03-13T18:47:57.612Z,7.27
2019-03-13T18:50:25.875Z,7.28
2019-03-13T18:52:54.171Z,7.28
2019-03-13T18:55:35.565Z,7.26
2019-03-13T18:58:03.805Z,7.21
2019-03-13T19:00:36.023Z,7.18
2019-03-13T19:03:06.101Z,7.19
2019-03-13T19:05:36.007Z,7.18
2019-03-13T19:08:05.167Z,7.17
2019-03-13T19:10:33.870Z,7.19
2019-03-13T19:13:02.165Z,7.19
2019-03-13T19:15:30.420Z,7.25
2019-03-13T19:18:00.822Z,7.28
2019-03-13T19:20:29.615Z,7.29
2019-03-13T19:22:57.848Z,7.30
2019-03-13T19:25:26.227Z,7.32
2019-03-13T19:27:54.471Z,7.32
2019-03-13T19:30:32.700Z,7.37
2019-03-13T19:33:00.950Z,7.37
2019-03-13T19:35:29.225Z,7.38
2019-03-13T19:38:09.115Z,7.40
2019-03-13T19:40:37.652Z,7.39
2019-03-13T19:43:06.476Z,7.38
2019-03-13T19:45:45.921Z,7.38
2019-03-13T19:48:14.237Z,7.40
2019-03-13T19:50:44.188Z,7.37
2019-03-13T19:53:12.592Z,7.38
2019-03-13T19:55:42.938Z,7.40
2019-03-13T19:58:14.194Z,7.39
2019-03-13T20:00:46.132Z,7.39
2019-03-13T20:03:17.413Z,7.40
2019-03-13T20:05:46.789Z,7.41
2019-03-13T20:08:17.276Z,7.41
2019-03-13T20:10:47.916Z,7.45
2019-03-13T20:13:19.502Z,7.44
2019-03-13T20:15:49.410Z,7.43
2019-03-13T20:18:19.444Z,7.42
2019-03-13T20:20:49.520Z,7.44
2019-03-13T20:23:20.887Z,7.40
2019-03-13T20:25:50.527Z,7.39
2019-03-13T20:28:29.152Z,7.34
2019-03-13T20:30:58.729Z,7.34
2019-03-13T20:33:33.881Z,7.33
2019-03-13T20:36:07.230Z,7.30
2019-03-13T20:38:40.952Z,7.32
2019-03-13T20:41:09.296Z,7.35
2019-03-13T20:43:37.671Z,7.32
2019-03-13T20:46:05.930Z,7.40
2019-03-13T20:48:34.319Z,7.38
2019-03-13T20:51:02.848Z,7.36
2019-03-13T20:53:31.178Z,7.28
2019-03-13T20:55:59.464Z,7.27
2019-03-13T20:58:27.816Z,7.17
2019-03-13T21:00:56.171Z,7.09
2019-03-13T21:03:24.581Z,7.03
2019-03-13T21:05:52.954Z,6.97
2019-03-13T21:08:21.845Z,6.96
2019-03-13T21:10:50.245Z,6.91
2019-03-13T21:13:18.482Z,6.91
2019-03-13T21:15:46.723Z,6.91
2019-03-13T21:18:15.106Z,6.92
2019-03-13T21:20:43.371Z,6.92
2019-03-13T21:23:12.153Z,6.95
2019-03-13T21:25:40.514Z,6.96
2019-03-13T21:28:08.809Z,6.96
2019-03-13T21:30:37.140Z,7.00
2019-03-13T21:33:05.505Z,7.04
2019-03-13T21:35:33.809Z,7.03
2019-03-13T21:38:09.473Z,7.06
2019-03-13T21:40:37.728Z,7.10
2019-03-13T21:43:06.012Z,7.09
2019-03-13T21:45:41.144Z,7.10
2019-03-13T21:48:04.449Z,7.13
2019-03-13T21:50:32.683Z,7.13
2019-03-13T21:53:00.958Z,7.14
2019-03-13T21:55:29.230Z,7.18
2019-03-13T21:57:57.548Z,7.25
2019-03-13T22:00:26.622Z,7.28
2019-03-13T22:02:55.006Z,7.28
2019-03-13T22:05:27.360Z,7.31
2019-03-13T22:07:53.988Z,7.31
2019-03-13T22:10:22.801Z,7.31
2019-03-13T22:12:51.133Z,7.30
2019-03-13T22:15:20.548Z,7.29
2019-03-13T22:17:48.797Z,7.30
2019-03-13T22:20:17.496Z,7.30
2019-03-13T22:22:45.901Z,7.35
2019-03-13T22:25:15.390Z,7.34
2019-03-13T22:27:43.836Z,7.35
2019-03-13T22:30:21.180Z,7.36
2019-03-13T22:32:49.609Z,7.33
2019-03-13T22:35:17.853Z,7.35
2019-03-13T22:37:46.142Z,7.34
2019-03-13T22:40:15.853Z,7.34
2019-03-13T22:42:44.094Z,7.32
2019-03-13T22:45:15.069Z,7.33
2019-03-13T22:47:43.887Z,7.33
2019-03-13T22:50:17.352Z,7.34
2019-03-13T22:52:45.765Z,7.34
2019-03-13T22:55:14.206Z,7.32
2019-03-13T22:57:42.498Z,7.26
2019-03-13T23:00:23.339Z,7.27
2019-03-13T23:02:52.074Z,7.24
2019-03-13T23:05:20.709Z,7.20
2019-03-13T23:07:48.977Z,7.17
2019-03-13T23:10:33.332Z,7.14
2019-03-13T23:13:01.617Z,7.16
2019-03-13T23:15:30.025Z,7.12
2019-03-13T23:17:58.267Z,7.05
2019-03-13T23:20:26.520Z,7.02
2019-03-13T23:22:54.782Z,7.02
2019-03-13T23:25:23.295Z,6.96
2019-03-13T23:27:51.591Z,6.91
2019-03-13T23:30:20.294Z,6.86
2019-03-13T23:32:48.528Z,6.82
2019-03-13T23:35:16.787Z,6.79
2019-03-13T23:37:45.176Z,6.81
2019-03-13T23:40:13.415Z,6.79
2019-03-13T23:42:41.697Z,6.77
2019-03-13T23:45:10.252Z,6.73
2019-03-13T23:47:39.272Z,6.74
2019-03-13T23:50:09.536Z,6.71
2019-03-13T23:52:37.813Z,6.73
2019-03-13T23:55:06.730Z,6.74
2019-03-13T23:57:34.975Z,6.71
